createdAt,value
2022-08-20T00:00:49.925Z,100435.06
2022-08-20T00:03:35.891Z,100435.06
2022-08-20T00:06:14.031Z,100436.91
2022-08-20T00:08:42.067Z,100435.19
2022-08-20T00:11:11.196Z,100438.06
2022-08-20T00:13:41.946Z,100444.31
2022-08-20T00:16:08.649Z,100436.03
2022-08-20T00:18:37.051Z,100430.41
2022-08-20T00:21:08.409Z,100426.06
2022-08-20T00:23:43.698Z,100434.16
2022-08-20T00:26:11.837Z,100436.03
2022-08-20T00:28:39.209Z,100436.75
2022-08-20T00:31:09.253Z,100433.34
2022-08-20T00:33:36.939Z,100433.84
2022-08-20T00:36:07.097Z,100437.03
2022-08-20T00:38:35.239Z,100442.34
2022-08-20T00:41:02.084Z,100450.00
2022-08-20T00:43:37.143Z,100450.69
2022-08-20T00:46:11.112Z,100450.59
2022-08-20T00:48:40.824Z,100441.88
2022-08-20T00:51:29.908Z,100440.63
2022-08-20T00:54:01.968Z,100444.09
2022-08-20T00:56:31.002Z,100444.91
2022-08-20T00:58:57.619Z,100432.22
2022-08-20T01:01:24.446Z,100426.88
2022-08-20T01:03:53.534Z,100422.72
2022-08-20T01:06:19.982Z,100424.59
2022-08-20T01:08:46.945Z,100439.22
2022-08-20T01:11:17.077Z,100440.75
2022-08-20T01:13:45.736Z,100433.56
2022-08-20T01:16:31.328Z,100431.53
2022-08-20T01:19:00.344Z,100427.28
2022-08-20T01:21:28.423Z,100434.72
2022-08-20T01:24:12.411Z,100440.75
2022-08-20T01:26:44.990Z,100441.22
2022-08-20T01:29:18.339Z,100435.88
2022-08-20T01:31:45.453Z,100435.81
2022-08-20T01:34:15.275Z,100443.94
2022-08-20T01:36:46.587Z,100438.41
2022-08-20T01:39:17.363Z,100444.56
2022-08-20T01:42:13.031Z,100452.88
2022-08-20T01:44:42.504Z,100456.03
2022-08-20T01:47:17.397Z,100447.91
2022-08-20T01:49:52.145Z,100445.91
2022-08-20T01:52:28.588Z,100441.06
2022-08-20T01:54:55.415Z,100432.25
2022-08-20T01:57:26.644Z,100435.53
2022-08-20T01:59:53.664Z,100427.81
2022-08-20T02:02:20.259Z,100435.03
2022-08-20T02:04:46.801Z,100433.97
2022-08-20T02:07:17.433Z,100428.91
2022-08-20T02:09:44.390Z,100430.56
2022-08-20T02:12:11.303Z,100423.38
2022-08-20T02:14:44.991Z,100429.16
2022-08-20T02:17:12.864Z,100422.09
2022-08-20T02:19:45.831Z,100427.72
2022-08-20T02:22:29.600Z,100433.97
2022-08-20T02:24:56.453Z,100436.50
2022-08-20T02:27:23.716Z,100434.72
2022-08-20T02:29:51.417Z,100439.50
2022-08-20T02:32:32.290Z,100440.00
2022-08-20T02:35:02.223Z,100433.38
2022-08-20T02:37:29.417Z,100439.50
2022-08-20T02:39:55.926Z,100445.22
2022-08-20T02:42:22.478Z,100444.72
2022-08-20T02:44:48.925Z,100448.50
2022-08-20T02:47:17.082Z,100450.63
2022-08-20T02:49:43.575Z,100444.03
2022-08-20T02:52:10.081Z,100439.47
2022-08-20T02:54:36.669Z,100430.53
2022-08-20T02:57:04.584Z,100434.22
2022-08-20T02:59:31.380Z,100430.91
2022-08-20T03:02:00.534Z,100432.56
2022-08-20T03:04:29.491Z,100426.22
2022-08-20T03:06:57.163Z,100421.31
2022-08-20T03:09:24.265Z,100425.63
2022-08-20T03:11:51.221Z,100421.22
2022-08-20T03:14:17.692Z,100434.03
2022-08-20T03:16:44.158Z,100432.94
2022-08-20T03:19:10.640Z,100435.41
2022-08-20T03:21:37.169Z,100429.78
2022-08-20T03:24:03.953Z,100432.13
2022-08-20T03:26:30.404Z,100435.09
2022-08-20T03:28:56.959Z,100435.09
2022-08-20T03:31:23.669Z,100440.09
2022-08-20T03:33:53.549Z,100442.69
2022-08-20T03:36:28.081Z,100444.03
2022-08-20T03:39:01.984Z,100441.13
2022-08-20T03:41:29.003Z,100434.09
2022-08-20T03:43:55.804Z,100428.88
2022-08-20T03:46:23.510Z,100441.13
2022-08-20T03:48:56.681Z,100446.13
2022-08-20T03:51:29.748Z,100445.38
2022-08-20T03:53:56.840Z,100439.78
2022-08-20T03:56:23.499Z,100438.81
2022-08-20T03:58:50.214Z,100440.38
2022-08-20T04:01:45.308Z,100429.88
2022-08-20T04:04:03.762Z,100425.75
2022-08-20T04:06:30.477Z,100424.88
2022-08-20T04:08:57.275Z,100425.75
2022-08-20T04:11:24.363Z,100424.44
2022-08-20T04:13:51.089Z,100426.06
2022-08-20T04:16:18.046Z,100424.09
2022-08-20T04:19:01.647Z,100425.81
2022-08-20T04:21:32.618Z,100423.34
2022-08-20T04:24:04.426Z,100422.56
2022-08-20T04:26:31.933Z,100422.47
2022-08-20T04:28:58.527Z,100415.53
2022-08-20T04:31:25.571Z,100425.16
2022-08-20T04:33:52.685Z,100429.03
2022-08-20T04:36:19.687Z,100432.69
2022-08-20T04:38:49.690Z,100437.44
2022-08-20T04:41:22.752Z,100434.75
2022-08-20T04:43:51.590Z,100423.28
2022-08-20T04:46:18.117Z,100419.19
2022-08-20T04:48:50.528Z,100429.94
2022-08-20T04:51:18.667Z,100436.13
2022-08-20T04:53:52.037Z,100447.28
2022-08-20T04:56:39.612Z,100449.72
2022-08-20T04:59:07.330Z,100448.00
2022-08-20T05:01:34.540Z,100448.47
2022-08-20T05:04:01.105Z,100454.06
2022-08-20T05:06:31.796Z,100453.56
2022-08-20T05:09:00.142Z,100456.66
2022-08-20T05:11:36.067Z,100453.97
2022-08-20T05:14:08.753Z,100461.97
2022-08-20T05:16:40.284Z,100467.94
2022-08-20T05:19:12.135Z,100465.69
2022-08-20T05:21:39.471Z,100456.56
2022-08-20T05:24:06.710Z,100475.81
2022-08-20T05:26:33.557Z,100480.50
2022-08-20T05:29:00.090Z,100479.56
2022-08-20T05:31:30.927Z,100479.72
2022-08-20T05:34:11.729Z,100477.78
2022-08-20T05:36:45.448Z,100480.25
2022-08-20T05:39:14.435Z,100481.22
2022-08-20T05:41:41.181Z,100479.78
2022-08-20T05:44:10.849Z,100475.38
2022-08-20T05:46:41.005Z,100468.81
2022-08-20T05:49:13.645Z,100478.28
2022-08-20T05:51:40.199Z,100472.97
2022-08-20T05:54:07.480Z,100477.22
2022-08-20T05:56:36.102Z,100474.03
2022-08-20T05:59:04.974Z,100475.63
2022-08-20T06:01:33.013Z,100484.22
2022-08-20T06:04:18.737Z,100479.19
2022-08-20T06:06:47.149Z,100475.75
2022-08-20T06:09:30.966Z,100481.13
2022-08-20T06:12:04.267Z,100476.94
2022-08-20T06:14:31.609Z,100476.06
2022-08-20T06:17:13.358Z,100472.78
2022-08-20T06:19:44.276Z,100476.19
2022-08-20T06:22:18.729Z,100472.09
2022-08-20T06:24:48.537Z,100477.44
2022-08-20T06:27:16.458Z,100480.28
2022-08-20T06:29:43.493Z,100485.72
2022-08-20T06:32:11.425Z,100485.03
2022-08-20T06:34:37.918Z,100486.91
2022-08-20T06:37:31.366Z,100489.59
2022-08-20T06:40:03.311Z,100491.50
2022-08-20T06:42:29.946Z,100483.06
2022-08-20T06:44:56.509Z,100481.47
2022-08-20T06:47:23.510Z,100487.66
2022-08-20T06:49:50.424Z,100480.00
2022-08-20T06:52:17.273Z,100488.91
2022-08-20T06:54:45.577Z,100487.41
2022-08-20T06:57:12.795Z,100492.63
2022-08-20T06:59:39.327Z,100503.38
2022-08-20T07:02:05.811Z,100503.63
2022-08-20T07:04:32.397Z,100504.09
2022-08-20T07:06:59.353Z,100499.13
2022-08-20T07:09:27.216Z,100502.03
2022-08-20T07:11:53.696Z,100505.81
2022-08-20T07:14:20.827Z,100495.63
2022-08-20T07:16:47.470Z,100482.84
2022-08-20T07:19:14.667Z,100490.81
2022-08-20T07:21:41.451Z,100488.59
2022-08-20T07:24:09.665Z,100496.53
2022-08-20T07:26:36.517Z,100498.38
2022-08-20T07:29:03.497Z,100508.34
2022-08-20T07:31:48.604Z,100498.19
2022-08-20T07:34:15.097Z,100496.53
2022-08-20T07:36:41.667Z,100502.03
2022-08-20T07:39:08.220Z,100498.56
2022-08-20T07:41:36.165Z,100496.03
2022-08-20T07:44:02.791Z,100507.69
2022-08-20T07:46:31.308Z,100505.44
2022-08-20T07:48:58.066Z,100499.50
2022-08-20T07:51:24.542Z,100504.78
2022-08-20T07:53:51.793Z,100495.50
2022-08-20T07:56:24.240Z,100493.34
2022-08-20T07:58:55.373Z,100491.66
2022-08-20T08:01:29.600Z,100494.28
2022-08-20T08:03:57.652Z,100496.25
2022-08-20T08:06:29.046Z,100502.72
2022-08-20T08:09:05.463Z,100509.25
2022-08-20T08:11:34.978Z,100506.03
2022-08-20T08:14:05.258Z,100506.97
2022-08-20T08:16:32.415Z,100508.09
2022-08-20T08:19:01.207Z,100499.88
2022-08-20T08:21:29.010Z,100501.00
2022-08-20T08:23:56.104Z,100497.66
2022-08-20T08:26:22.610Z,100492.09
2022-08-20T08:28:49.295Z,100490.47
2022-08-20T08:31:15.875Z,100491.50
2022-08-20T08:33:43.022Z,100492.63
2022-08-20T08:36:12.196Z,100502.09
2022-08-20T08:38:42.894Z,100499.69
2022-08-20T08:41:20.319Z,100493.06
2022-08-20T08:43:49.214Z,100504.72
2022-08-20T08:46:22.524Z,100497.56
2022-08-20T08:48:53.449Z,100500.97
2022-08-20T08:51:58.353Z,100498.47
2022-08-20T08:54:28.774Z,100497.53
2022-08-20T08:56:55.691Z,100509.16
2022-08-20T08:59:23.282Z,100500.72
2022-08-20T09:01:57.139Z,100495.88
2022-08-20T09:04:37.950Z,100508.84
2022-08-20T09:07:10.884Z,100503.66
2022-08-20T09:09:41.737Z,100507.53
2022-08-20T09:12:11.761Z,100508.81
2022-08-20T09:14:38.833Z,100504.72
2022-08-20T09:17:06.288Z,100511.06
2022-08-20T09:19:33.617Z,100497.91
2022-08-20T09:22:07.459Z,100504.34
2022-08-20T09:24:33.948Z,100504.84
2022-08-20T09:27:00.409Z,100505.88
2022-08-20T09:29:27.057Z,100502.88
2022-08-20T09:32:04.739Z,100500.03
2022-08-20T09:34:34.469Z,100496.94
2022-08-20T09:37:00.994Z,100490.84
2022-08-20T09:39:27.457Z,100489.75
2022-08-20T09:41:53.997Z,100492.94
2022-08-20T09:44:20.502Z,100494.41
2022-08-20T09:46:46.999Z,100496.31
2022-08-20T09:49:13.470Z,100489.19
2022-08-20T09:51:39.996Z,100487.28
2022-08-20T09:54:06.589Z,100491.34
2022-08-20T09:56:34.692Z,100493.47
2022-08-20T09:59:02.998Z,100495.19
2022-08-20T10:01:29.796Z,100485.47
2022-08-20T10:03:56.296Z,100483.94
2022-08-20T10:06:22.872Z,100485.25
2022-08-20T10:08:50.107Z,100486.38
2022-08-20T10:11:17.860Z,100484.56
2022-08-20T10:13:44.892Z,100486.88
2022-08-20T10:16:11.409Z,100480.81
2022-08-20T10:18:37.958Z,100477.88
2022-08-20T10:21:10.056Z,100474.84
2022-08-20T10:23:36.556Z,100476.69
2022-08-20T10:26:03.034Z,100474.09
2022-08-20T10:28:29.513Z,100466.34
2022-08-20T10:30:55.989Z,100466.34
2022-08-20T10:33:22.460Z,100475.50
2022-08-20T10:35:48.953Z,100468.59
2022-08-20T10:38:17.184Z,100473.25
2022-08-20T10:40:52.232Z,100471.13
2022-08-20T10:43:19.237Z,100472.09
2022-08-20T10:45:45.682Z,100468.84
2022-08-20T10:48:12.155Z,100464.06
2022-08-20T10:50:38.661Z,100474.50
2022-08-20T10:53:05.138Z,100468.31
2022-08-20T10:55:31.684Z,100468.41
2022-08-20T10:57:58.314Z,100466.84
2022-08-20T11:00:25.064Z,100465.88
2022-08-20T11:02:51.873Z,100469.63
2022-08-20T11:05:18.502Z,100458.31
2022-08-20T11:07:54.854Z,100461.97
2022-08-20T11:10:27.423Z,100462.94
2022-08-20T11:12:54.632Z,100457.66
2022-08-20T11:15:21.227Z,100459.41
2022-08-20T11:17:47.745Z,100464.03
2022-08-20T11:20:16.354Z,100463.06
2022-08-20T11:22:42.851Z,100466.59
2022-08-20T11:25:10.360Z,100459.53
2022-08-20T11:27:44.223Z,100461.13
2022-08-20T11:30:14.500Z,100460.44
2022-08-20T11:32:40.934Z,100461.28
2022-08-20T11:35:38.241Z,100456.94
2022-08-20T11:37:55.929Z,100453.16
2022-08-20T11:40:23.531Z,100449.00
2022-08-20T11:43:13.176Z,100445.59
2022-08-20T11:45:37.634Z,100439.66
2022-08-20T11:48:04.981Z,100446.84
2022-08-20T11:50:31.690Z,100442.31
2022-08-20T11:52:58.329Z,100442.22
2022-08-20T11:55:28.615Z,100444.22
2022-08-20T11:57:59.605Z,100445.13
2022-08-20T12:00:32.163Z,100441.53
2022-08-20T12:03:01.196Z,100429.44
2022-08-20T12:05:29.567Z,100439.97
2022-08-20T12:07:57.761Z,100441.66
2022-08-20T12:10:26.569Z,100433.97
2022-08-20T12:12:53.349Z,100436.50
2022-08-20T12:15:20.044Z,100426.84
2022-08-20T12:17:46.582Z,100426.13
2022-08-20T12:20:15.205Z,100422.63
2022-08-20T12:22:42.600Z,100418.22
2022-08-20T12:25:09.639Z,100416.44
2022-08-20T12:27:37.490Z,100418.22
2022-08-20T12:30:14.138Z,100416.25
2022-08-20T12:32:42.228Z,100414.56
2022-08-20T12:35:10.755Z,100415.59
2022-08-20T12:37:37.384Z,100421.72
2022-08-20T12:40:08.614Z,100410.22
2022-08-20T12:42:35.283Z,100412.13
2022-08-20T12:45:02.135Z,100404.13
2022-08-20T12:47:34.794Z,100402.31
2022-08-20T12:50:08.624Z,100398.72
2022-08-20T12:52:35.546Z,100399.66
2022-08-20T12:55:02.811Z,100394.41
2022-08-20T12:57:35.085Z,100387.38
2022-08-20T13:00:10.493Z,100390.06
2022-08-20T13:02:38.719Z,100384.75
2022-08-20T13:05:06.917Z,100385.69
2022-08-20T13:07:34.189Z,100391.91
2022-08-20T13:10:01.555Z,100382.06
2022-08-20T13:12:28.278Z,100395.22
2022-08-20T13:14:54.730Z,100390.78
2022-08-20T13:17:24.334Z,100384.50
2022-08-20T13:20:08.274Z,100382.81
2022-08-20T13:22:34.960Z,100372.38
2022-08-20T13:25:01.504Z,100373.34
2022-08-20T13:27:27.974Z,100376.03
2022-08-20T13:29:58.779Z,100380.53
2022-08-20T13:32:25.472Z,100373.38
2022-08-20T13:34:51.989Z,100383.06
2022-08-20T13:37:25.791Z,100371.53
2022-08-20T13:39:53.912Z,100375.03
2022-08-20T13:42:20.864Z,100368.03
2022-08-20T13:44:48.160Z,100368.97
2022-08-20T13:47:15.008Z,100366.28
2022-08-20T13:49:41.500Z,100361.91
2022-08-20T13:52:08.558Z,100365.50
2022-08-20T13:54:35.086Z,100367.25
2022-08-20T13:57:19.482Z,100367.22
2022-08-20T13:59:48.252Z,100356.56
2022-08-20T14:02:16.417Z,100354.75
2022-08-20T14:04:43.149Z,100346.00
2022-08-20T14:07:15.237Z,100344.22
2022-08-20T14:09:44.394Z,100344.16
2022-08-20T14:12:13.047Z,100340.66
2022-08-20T14:14:40.977Z,100331.78
2022-08-20T14:17:24.590Z,100337.09
2022-08-20T14:19:54.456Z,100332.69
2022-08-20T14:22:23.981Z,100331.00
2022-08-20T14:24:50.789Z,100328.38
2022-08-20T14:27:20.500Z,100324.84
2022-08-20T14:29:48.546Z,100318.63
2022-08-20T14:32:15.551Z,100317.78
2022-08-20T14:34:42.778Z,100311.47
2022-08-20T14:37:10.814Z,100314.13
2022-08-20T14:39:37.451Z,100306.19
2022-08-20T14:42:04.182Z,100310.59
2022-08-20T14:44:30.631Z,100308.84
2022-08-20T14:46:57.179Z,100304.38
2022-08-20T14:49:23.722Z,100303.50
2022-08-20T14:51:50.173Z,100304.44
2022-08-20T14:54:16.669Z,100307.94
2022-08-20T14:56:43.123Z,100300.88
2022-08-20T14:59:09.674Z,100296.44
2022-08-20T15:01:36.261Z,100296.44
2022-08-20T15:04:03.011Z,100292.03
2022-08-20T15:06:31.157Z,100293.00
2022-08-20T15:08:57.621Z,100296.59
2022-08-20T15:11:24.088Z,100292.19
2022-08-20T15:13:50.564Z,100287.72
2022-08-20T15:16:17.038Z,100283.28
2022-08-20T15:18:43.492Z,100285.94
2022-08-20T15:21:10.333Z,100280.66
2022-08-20T15:23:37.028Z,100284.16
2022-08-20T15:26:03.529Z,100283.31
2022-08-20T15:28:29.991Z,100288.63
2022-08-20T15:30:56.537Z,100281.53
2022-08-20T15:33:23.045Z,100278.00
2022-08-20T15:35:49.542Z,100280.63
2022-08-20T15:38:16.086Z,100275.28
2022-08-20T15:40:42.676Z,100272.66
2022-08-20T15:43:09.209Z,100279.75
2022-08-20T15:45:36.236Z,100282.38
2022-08-20T15:48:15.099Z,100274.38
2022-08-20T15:50:52.059Z,100273.53
2022-08-20T15:53:39.488Z,100270.91
2022-08-20T15:56:24.261Z,100277.09
2022-08-20T15:59:08.873Z,100283.34
2022-08-20T16:02:04.879Z,100289.56
2022-08-20T16:04:40.231Z,100282.44
2022-08-20T16:07:13.213Z,100282.41
2022-08-20T16:10:21.019Z,100278.88
2022-08-20T16:12:51.852Z,100275.28
2022-08-20T16:15:24.650Z,100274.31
2022-08-20T16:18:05.497Z,100272.53
2022-08-20T16:20:41.854Z,100278.75
2022-08-20T16:23:09.309Z,100283.16
2022-08-20T16:26:02.052Z,100281.41
2022-08-20T16:28:39.112Z,100283.19
2022-08-20T16:31:10.050Z,100282.28
2022-08-20T16:34:33.336Z,100277.81
2022-08-20T16:37:10.170Z,100281.34
2022-08-20T16:39:49.709Z,100276.03
2022-08-20T16:42:20.893Z,100270.72
2022-08-20T16:44:49.305Z,100278.66
2022-08-20T16:47:42.014Z,100277.81
2022-08-20T16:50:16.749Z,100273.44
2022-08-20T16:52:47.025Z,100274.34
2022-08-20T16:55:14.419Z,100278.72
2022-08-20T16:57:40.966Z,100267.22
2022-08-20T17:00:29.944Z,100271.59
2022-08-20T17:02:59.835Z,100274.22
2022-08-20T17:05:31.832Z,100275.13
2022-08-20T17:08:03.644Z,100272.47
2022-08-20T17:10:37.391Z,100277.72
2022-08-20T17:13:13.162Z,100270.66
2022-08-20T17:15:43.470Z,100280.38
2022-08-20T17:18:24.476Z,100283.00
2022-08-20T17:20:51.477Z,100275.03
2022-08-20T17:23:20.986Z,100280.28
2022-08-20T17:26:01.074Z,100282.94
2022-08-20T17:28:31.925Z,100285.59
2022-08-20T17:31:01.213Z,100285.50
2022-08-20T17:33:36.817Z,100283.66
2022-08-20T17:36:20.086Z,100298.72
2022-08-20T17:38:49.981Z,100291.59
2022-08-20T17:41:34.513Z,100293.34
2022-08-20T17:44:04.613Z,100296.84
2022-08-20T17:46:34.933Z,100310.94
2022-08-20T17:49:05.234Z,100305.59
2022-08-20T17:51:38.416Z,100303.66
2022-08-20T17:54:28.021Z,100301.75
2022-08-20T17:57:00.104Z,100313.13
2022-08-20T18:00:01.303Z,100314.78
2022-08-20T18:02:23.361Z,100316.50
2022-08-20T18:04:53.322Z,100320.91
2022-08-20T18:07:33.916Z,100325.22
2022-08-20T18:10:14.011Z,100318.16
2022-08-20T18:13:01.226Z,100318.03
2022-08-20T18:15:50.765Z,100319.63
2022-08-20T18:18:24.866Z,100315.13
2022-08-20T18:21:15.750Z,100318.56
2022-08-20T18:24:12.122Z,100324.63
2022-08-20T18:26:58.046Z,100328.94
2022-08-20T18:29:32.117Z,100330.56
2022-08-20T18:32:02.164Z,100332.28
2022-08-20T18:34:28.995Z,100336.66
2022-08-20T18:37:02.464Z,100333.09
2022-08-20T18:39:30.175Z,100333.09
2022-08-20T18:42:21.326Z,100335.66
2022-08-20T18:44:51.126Z,100338.19
2022-08-20T18:47:42.519Z,100338.97
2022-08-20T18:50:28.396Z,100335.34
2022-08-20T18:53:21.084Z,100337.06
2022-08-20T18:56:01.155Z,100347.53
2022-08-20T18:58:47.729Z,100343.09
2022-08-20T19:01:14.959Z,100347.44
2022-08-20T19:03:50.794Z,100342.97
2022-08-20T19:06:32.365Z,100342.91
2022-08-20T19:09:11.756Z,100353.34
2022-08-20T19:11:57.793Z,100348.84
2022-08-20T19:14:39.554Z,100350.56
2022-08-20T19:17:11.320Z,100346.06
2022-08-20T19:19:38.960Z,100352.16
2022-08-20T19:22:06.254Z,100350.41
2022-08-20T19:24:35.676Z,100351.31
2022-08-20T19:27:07.656Z,100342.41
2022-08-20T19:29:37.851Z,100351.03
2022-08-20T19:32:07.579Z,100351.03
2022-08-20T19:34:35.759Z,100350.06
2022-08-20T19:37:35.244Z,100349.16
2022-08-20T19:40:07.787Z,100351.53
2022-08-20T19:42:42.842Z,100352.34
2022-08-20T19:45:18.610Z,100352.25
2022-08-20T19:48:11.929Z,100352.22
2022-08-20T19:50:56.981Z,100354.06
2022-08-20T19:53:30.708Z,100347.81
2022-08-20T19:56:04.526Z,100353.00
2022-08-20T19:58:32.585Z,100354.63
2022-08-20T20:01:02.228Z,100344.81
2022-08-20T20:03:35.137Z,100342.97
2022-08-20T20:06:18.018Z,100340.22
2022-08-20T20:09:00.464Z,100353.28
2022-08-20T20:11:32.752Z,100356.84
2022-08-20T20:14:10.252Z,100357.66
2022-08-20T20:16:38.655Z,100361.81
2022-08-20T20:19:25.394Z,100359.97
2022-08-20T20:22:20.188Z,100354.72
2022-08-20T20:24:56.629Z,100361.72
2022-08-20T20:27:26.290Z,100356.38
2022-08-20T20:29:59.947Z,100361.66
2022-08-20T20:32:27.568Z,100359.94
2022-08-20T20:34:58.235Z,100356.44
2022-08-20T20:37:49.400Z,100361.69
2022-08-20T20:40:26.875Z,100368.53
2022-08-20T20:43:21.898Z,100360.41
2022-08-20T20:45:58.929Z,100366.56
2022-08-20T20:48:27.802Z,100365.63
2022-08-20T20:50:59.639Z,100374.94
2022-08-20T20:53:47.280Z,100375.78
2022-08-20T20:56:35.144Z,100377.56
2022-08-20T20:59:06.580Z,100380.94
2022-08-20T21:01:45.792Z,100387.88
2022-08-20T21:04:18.591Z,100391.31
2022-08-20T21:06:45.115Z,100393.91
2022-08-20T21:09:12.129Z,100386.69
2022-08-20T21:11:38.588Z,100385.72
2022-08-20T21:14:05.074Z,100393.50
2022-08-20T21:16:31.567Z,100389.81
2022-08-20T21:18:58.442Z,100397.56
2022-08-20T21:21:25.212Z,100391.31
2022-08-20T21:23:51.710Z,100402.75
2022-08-20T21:26:18.691Z,100411.44
2022-08-20T21:28:45.378Z,100409.34
2022-08-20T21:31:12.825Z,100411.63
2022-08-20T21:33:39.264Z,100406.22
2022-08-20T21:36:06.599Z,100412.41
2022-08-20T21:38:33.253Z,100409.72
2022-08-20T21:40:59.878Z,100417.34
2022-08-20T21:43:26.560Z,100416.50
2022-08-20T21:45:53.268Z,100417.38
2022-08-20T21:48:20.367Z,100416.53
2022-08-20T21:50:46.902Z,100425.13
2022-08-20T21:53:13.555Z,100421.38
2022-08-20T21:55:40.684Z,100432.03
2022-08-20T21:58:07.956Z,100425.88
2022-08-20T22:00:58.011Z,100431.25
2022-08-20T22:03:29.145Z,100435.66
2022-08-20T22:05:58.715Z,100441.94
2022-08-20T22:08:28.469Z,100433.97
2022-08-20T22:10:57.092Z,100441.44
2022-08-20T22:13:25.775Z,100443.78
2022-08-20T22:15:52.295Z,100442.22
2022-08-20T22:18:18.752Z,100446.59
2022-08-20T22:20:45.320Z,100446.22
2022-08-20T22:23:12.155Z,100441.41
2022-08-20T22:25:39.984Z,100446.75
2022-08-20T22:28:07.026Z,100435.94
2022-08-20T22:30:34.647Z,100437.91
2022-08-20T22:33:07.873Z,100436.84
2022-08-20T22:35:35.029Z,100431.59
2022-08-20T22:38:01.748Z,100436.41
2022-08-20T22:40:28.435Z,100437.41
2022-08-20T22:42:55.653Z,100432.31
2022-08-20T22:45:22.336Z,100433.13
2022-08-20T22:47:48.825Z,100440.81
2022-08-20T22:50:24.883Z,100440.59
2022-08-20T22:52:52.426Z,100439.25
2022-08-20T22:55:19.351Z,100440.91
2022-08-20T22:57:46.806Z,100446.94
2022-08-20T23:00:16.882Z,100443.88
2022-08-20T23:02:49.423Z,100443.56
2022-08-20T23:05:20.136Z,100443.69
2022-08-20T23:07:50.657Z,100432.72
2022-08-20T23:10:20.032Z,100443.94
2022-08-20T23:12:46.456Z,100447.31
2022-08-20T23:15:14.139Z,100450.69
2022-08-20T23:17:40.810Z,100453.03
2022-08-20T23:20:10.326Z,100454.97
2022-08-20T23:22:36.970Z,100462.50
2022-08-20T23:25:08.942Z,100469.63
2022-08-20T23:27:41.177Z,100465.66
2022-08-20T23:30:08.085Z,100458.09
2022-08-20T23:32:34.551Z,100458.28
2022-08-20T23:35:01.017Z,100462.63
2022-08-20T23:37:27.505Z,100462.53
2022-08-20T23:39:54.023Z,100459.19
2022-08-20T23:42:20.505Z,100460.22
2022-08-20T23:44:46.970Z,100461.31
2022-08-20T23:47:19.609Z,100467.19
2022-08-20T23:49:46.784Z,100467.31
2022-08-20T23:52:13.413Z,100458.84
2022-08-20T23:54:40.066Z,100457.09
2022-08-20T23:57:08.397Z,100453.47
2022-08-20T23:59:35.610Z,100460.50
